sensor_id;sensor_type;location;lat;lon;timestamp;P1;durP1;ratioP1;P2;durP2;ratioP2
16270;SDS011;8243;49.048;8.396;2024-01-15T00:01:49;35.70;;;19.07;;
16270;SDS011;8243;49.048;8.396;2024-01-15T00:04:15;33.77;;;17.10;;
16270;SDS011;8243;49.048;8.396;2024-01-15T00:06:40;33.30;;;17.13;;
16270;SDS011;8243;49.048;8.396;2024-01-15T00:09:06;34.80;;;17.20;;
16270;SDS011;8243;49.048;8.396;2024-01-15T00:11:31;34.57;;;17.23;;
16270;SDS011;8243;49.048;8.396;2024-01-15T00:13:57;32.73;;;16.60;;
16270;SDS011;8243;49.048;8.396;2024-01-15T00:16:23;32.33;;;16.67;;
16270;SDS011;8243;49.048;8.396;2024-01-15T00:18:56;30.40;;;15.77;;
16270;SDS011;8243;49.048;8.396;2024-01-15T00:21:21;30.47;;;14.63;;
16270;SDS011;8243;49.048;8.396;2024-01-15T00:23:47;29.93;;;15.83;;
16270;SDS011;8243;49.048;8.396;2024-01-15T00:26:12;33.57;;;16.27;;
16270;SDS011;8243;49.048;8.396;2024-01-15T00:28:38;31.30;;;16.00;;
16270;SDS011;8243;49.048;8.396;2024-01-15T00:31:04;36.07;;;17.33;;
16270;SDS011;8243;49.048;8.396;2024-01-15T00:33:30;34.33;;;16.47;;
16270;SDS011;8243;49.048;8.396;2024-01-15T00:35:58;30.63;;;15.47;;
16270;SDS011;8243;49.048;8.396;2024-01-15T00:38:25;31.97;;;15.80;;
16270;SDS011;8243;49.048;8.396;2024-01-15T00:40:51;31.27;;;15.83;;
16270;SDS011;8243;49.048;8.396;2024-01-15T00:43:18;32.03;;;14.73;;
16270;SDS011;8243;49.048;8.396;2024-01-15T00:45:45;30.47;;;15.10;;
16270;SDS011;8243;49.048;8.396;2024-01-15T00:48:12;30.60;;;14.20;;
16270;SDS011;8243;49.048;8.396;2024-01-15T00:50:38;28.87;;;13.87;;
16270;SDS011;8243;49.048;8.396;2024-01-15T00:53:04;28.83;;;14.40;;
16270;SDS011;8243;49.048;8.396;2024-01-15T00:55:38;33.83;;;16.27;;
16270;SDS011;8243;49.048;8.396;2024-01-15T00:58:04;28.67;;;14.53;;
16270;SDS011;8243;49.048;8.396;2024-01-15T01:00:29;32.70;;;15.90;;
16270;SDS011;8243;49.048;8.396;2024-01-15T01:06:04;33.47;;;15.80;;
16270;SDS011;8243;49.048;8.396;2024-01-15T01:08:29;34.17;;;16.47;;
16270;SDS011;8243;49.048;8.396;2024-01-15T01:10:55;33.07;;;15.90;;
16270;SDS011;8243;49.048;8.396;2024-01-15T01:13:21;34.23;;;15.20;;
16270;SDS011;8243;49.048;8.396;2024-01-15T01:15:47;29.87;;;15.60;;
16270;SDS011;8243;49.048;8.396;2024-01-15T01:18:13;31.03;;;15.10;;
16270;SDS011;8243;49.048;8.396;2024-01-15T01:20:39;33.20;;;15.20;;
16270;SDS011;8243;49.048;8.396;2024-01-15T01:23:05;30.37;;;15.67;;
16270;SDS011;8243;49.048;8.396;2024-01-15T01:25:31;30.73;;;14.80;;
16270;SDS011;8243;49.048;8.396;2024-01-15T01:27:57;30.47;;;14.13;;
16270;SDS011;8243;49.048;8.396;2024-01-15T01:30:31;30.23;;;15.33;;
16270;SDS011;8243;49.048;8.396;2024-01-15T01:35:32;31.10;;;14.40;;
16270;SDS011;8243;49.048;8.396;2024-01-15T01:37:58;28.63;;;14.60;;
16270;SDS011;8243;49.048;8.396;2024-01-15T01:40:23;24.03;;;13.33;;
16270;SDS011;8243;49.048;8.396;2024-01-15T01:42:49;29.90;;;13.60;;
16270;SDS011;8243;49.048;8.396;2024-01-15T01:45:16;25.83;;;14.20;;
16270;SDS011;8243;49.048;8.396;2024-01-15T01:47:42;30.30;;;14.30;;
16270;SDS011;8243;49.048;8.396;2024-01-15T01:50:08;28.73;;;14.47;;
16270;SDS011;8243;49.048;8.396;2024-01-15T01:52:34;27.13;;;13.40;;
16270;SDS011;8243;49.048;8.396;2024-01-15T01:55:00;28.60;;;14.20;;
16270;SDS011;8243;49.048;8.396;2024-01-15T01:57:27;27.70;;;14.30;;
16270;SDS011;8243;49.048;8.396;2024-01-15T01:59:53;27.90;;;14.13;;
16270;SDS011;8243;49.048;8.396;2024-01-15T02:02:19;27.47;;;14.07;;
16270;SDS011;8243;49.048;8.396;2024-01-15T02:04:48;26.77;;;14.37;;
16270;SDS011;8243;49.048;8.396;2024-01-15T02:07:15;29.57;;;14.73;;
16270;SDS011;8243;49.048;8.396;2024-01-15T02:09:49;26.97;;;14.47;;
16270;SDS011;8243;49.048;8.396;2024-01-15T02:12:20;28.60;;;13.90;;
16270;SDS011;8243;49.048;8.396;2024-01-15T02:14:45;26.93;;;14.03;;
16270;SDS011;8243;49.048;8.396;2024-01-15T02:17:11;28.30;;;13.77;;
16270;SDS011;8243;49.048;8.396;2024-01-15T02:22:11;26.00;;;13.30;;
16270;SDS011;8243;49.048;8.396;2024-01-15T02:24:37;30.60;;;14.10;;
16270;SDS011;8243;49.048;8.396;2024-01-15T02:27:03;27.63;;;13.83;;
16270;SDS011;8243;49.048;8.396;2024-01-15T02:29:29;28.47;;;14.33;;
16270;SDS011;8243;49.048;8.396;2024-01-15T02:31:55;25.77;;;14.33;;
16270;SDS011;8243;49.048;8.396;2024-01-15T02:34:20;29.20;;;15.40;;
16270;SDS011;8243;49.048;8.396;2024-01-15T02:36:46;27.07;;;13.60;;
16270;SDS011;8243;49.048;8.396;2024-01-15T02:39:12;27.30;;;13.33;;
16270;SDS011;8243;49.048;8.396;2024-01-15T02:41:37;24.80;;;12.90;;
16270;SDS011;8243;49.048;8.396;2024-01-15T02:44:03;25.70;;;13.40;;
16270;SDS011;8243;49.048;8.396;2024-01-15T02:46:29;24.30;;;12.60;;
16270;SDS011;8243;49.048;8.396;2024-01-15T02:48:55;23.27;;;12.53;;
16270;SDS011;8243;49.048;8.396;2024-01-15T02:51:28;26.60;;;13.10;;
16270;SDS011;8243;49.048;8.396;2024-01-15T02:53:55;25.87;;;12.87;;
16270;SDS011;8243;49.048;8.396;2024-01-15T02:56:21;26.70;;;13.30;;
16270;SDS011;8243;49.048;8.396;2024-01-15T02:58:47;24.60;;;12.70;;
16270;SDS011;8243;49.048;8.396;2024-01-15T03:01:12;26.57;;;12.87;;
16270;SDS011;8243;49.048;8.396;2024-01-15T03:03:39;25.47;;;13.37;;
16270;SDS011;8243;49.048;8.396;2024-01-15T03:06:05;21.83;;;11.80;;
16270;SDS011;8243;49.048;8.396;2024-01-15T03:08:31;21.73;;;11.97;;
16270;SDS011;8243;49.048;8.396;2024-01-15T03:13:44;22.57;;;11.67;;
16270;SDS011;8243;49.048;8.396;2024-01-15T03:16:19;25.00;;;12.47;;
16270;SDS011;8243;49.048;8.396;2024-01-15T03:18:46;21.27;;;11.63;;
16270;SDS011;8243;49.048;8.396;2024-01-15T03:21:12;19.93;;;11.77;;
16270;SDS011;8243;49.048;8.396;2024-01-15T03:23:37;20.87;;;11.13;;
16270;SDS011;8243;49.048;8.396;2024-01-15T03:26:03;23.67;;;11.87;;
16270;SDS011;8243;49.048;8.396;2024-01-15T03:28:28;22.33;;;12.20;;
16270;SDS011;8243;49.048;8.396;2024-01-15T03:30:55;22.50;;;12.10;;
16270;SDS011;8243;49.048;8.396;2024-01-15T03:33:21;21.53;;;11.50;;
16270;SDS011;8243;49.048;8.396;2024-01-15T03:36:04;21.93;;;11.37;;
16270;SDS011;8243;49.048;8.396;2024-01-15T03:38:31;24.77;;;12.57;;
16270;SDS011;8243;49.048;8.396;2024-01-15T03:40:57;24.07;;;12.40;;
16270;SDS011;8243;49.048;8.396;2024-01-15T03:43:22;21.47;;;11.87;;
16270;SDS011;8243;49.048;8.396;2024-01-15T03:45:49;21.73;;;11.43;;
16270;SDS011;8243;49.048;8.396;2024-01-15T03:48:19;25.80;;;12.73;;
16270;SDS011;8243;49.048;8.396;2024-01-15T03:50:46;24.40;;;12.13;;
16270;SDS011;8243;49.048;8.396;2024-01-15T03:53:12;24.93;;;11.90;;
16270;SDS011;8243;49.048;8.396;2024-01-15T03:55:37;22.67;;;11.73;;
16270;SDS011;8243;49.048;8.396;2024-01-15T03:58:13;20.57;;;11.30;;
16270;SDS011;8243;49.048;8.396;2024-01-15T04:00:48;22.50;;;11.37;;
16270;SDS011;8243;49.048;8.396;2024-01-15T04:03:16;20.47;;;11.10;;
16270;SDS011;8243;49.048;8.396;2024-01-15T04:05:42;24.00;;;12.50;;
16270;SDS011;8243;49.048;8.396;2024-01-15T04:08:10;23.10;;;11.27;;
16270;SDS011;8243;49.048;8.396;2024-01-15T04:17:23;19.50;;;10.93;;
16270;SDS011;8243;49.048;8.396;2024-01-15T04:33:54;20.17;;;10.70;;
16270;SDS011;8243;49.048;8.396;2024-01-15T04:36:20;21.03;;;10.97;;
16270;SDS011;8243;49.048;8.396;2024-01-15T04:39:00;20.47;;;10.60;;
16270;SDS011;8243;49.048;8.396;2024-01-15T04:41:26;20.73;;;12.17;;
16270;SDS011;8243;49.048;8.396;2024-01-15T04:43:52;18.57;;;10.83;;
16270;SDS011;8243;49.048;8.396;2024-01-15T04:46:17;22.57;;;11.73;;
16270;SDS011;8243;49.048;8.396;2024-01-15T04:48:44;23.70;;;12.57;;
16270;SDS011;8243;49.048;8.396;2024-01-15T04:51:09;23.63;;;11.87;;
16270;SDS011;8243;49.048;8.396;2024-01-15T04:53:35;23.53;;;12.57;;
16270;SDS011;8243;49.048;8.396;2024-01-15T04:58:51;24.60;;;13.03;;
16270;SDS011;8243;49.048;8.396;2024-01-15T05:01:17;22.00;;;12.20;;
16270;SDS011;8243;49.048;8.396;2024-01-15T05:03:48;23.03;;;12.37;;
16270;SDS011;8243;49.048;8.396;2024-01-15T05:06:17;24.37;;;12.67;;
16270;SDS011;8243;49.048;8.396;2024-01-15T05:08:44;24.60;;;12.87;;
16270;SDS011;8243;49.048;8.396;2024-01-15T05:11:12;23.63;;;12.90;;
16270;SDS011;8243;49.048;8.396;2024-01-15T05:13:40;24.37;;;12.77;;
16270;SDS011;8243;49.048;8.396;2024-01-15T05:16:06;22.37;;;11.87;;
16270;SDS011;8243;49.048;8.396;2024-01-15T05:18:33;20.57;;;11.43;;
16270;SDS011;8243;49.048;8.396;2024-01-15T05:20:59;23.30;;;12.07;;
16270;SDS011;8243;49.048;8.396;2024-01-15T05:23:26;22.47;;;12.63;;
16270;SDS011;8243;49.048;8.396;2024-01-15T05:25:52;23.90;;;12.03;;
16270;SDS011;8243;49.048;8.396;2024-01-15T05:28:19;23.47;;;12.67;;
16270;SDS011;8243;49.048;8.396;2024-01-15T05:30:45;20.73;;;11.43;;
16270;SDS011;8243;49.048;8.396;2024-01-15T05:33:11;25.03;;;12.10;;
16270;SDS011;8243;49.048;8.396;2024-01-15T05:35:43;22.30;;;11.30;;
16270;SDS011;8243;49.048;8.396;2024-01-15T05:38:11;22.20;;;11.80;;
16270;SDS011;8243;49.048;8.396;2024-01-15T05:40:36;24.27;;;12.90;;
16270;SDS011;8243;49.048;8.396;2024-01-15T05:43:11;23.23;;;12.87;;
16270;SDS011;8243;49.048;8.396;2024-01-15T05:48:35;24.30;;;12.63;;
16270;SDS011;8243;49.048;8.396;2024-01-15T05:51:01;25.83;;;12.90;;
16270;SDS011;8243;49.048;8.396;2024-01-15T05:53:34;22.83;;;13.13;;
16270;SDS011;8243;49.048;8.396;2024-01-15T05:56:02;22.27;;;11.77;;
16270;SDS011;8243;49.048;8.396;2024-01-15T05:58:31;23.43;;;12.50;;
16270;SDS011;8243;49.048;8.396;2024-01-15T06:00:59;24.07;;;12.87;;
16270;SDS011;8243;49.048;8.396;2024-01-15T06:03:24;25.43;;;13.33;;
16270;SDS011;8243;49.048;8.396;2024-01-15T06:05:50;22.70;;;12.37;;
16270;SDS011;8243;49.048;8.396;2024-01-15T06:08:15;24.10;;;12.47;;
16270;SDS011;8243;49.048;8.396;2024-01-15T06:10:41;25.77;;;13.17;;
16270;SDS011;8243;49.048;8.396;2024-01-15T06:13:07;24.50;;;13.33;;
16270;SDS011;8243;49.048;8.396;2024-01-15T06:15:32;24.37;;;13.47;;
16270;SDS011;8243;49.048;8.396;2024-01-15T06:17:58;24.03;;;13.47;;
16270;SDS011;8243;49.048;8.396;2024-01-15T06:20:23;25.20;;;14.10;;
16270;SDS011;8243;49.048;8.396;2024-01-15T06:22:49;27.03;;;14.07;;
16270;SDS011;8243;49.048;8.396;2024-01-15T06:25:14;27.97;;;14.30;;
16270;SDS011;8243;49.048;8.396;2024-01-15T06:27:46;24.73;;;14.23;;
16270;SDS011;8243;49.048;8.396;2024-01-15T06:30:12;25.53;;;13.60;;
16270;SDS011;8243;49.048;8.396;2024-01-15T06:32:38;22.80;;;13.20;;
16270;SDS011;8243;49.048;8.396;2024-01-15T06:35:03;26.97;;;13.37;;
16270;SDS011;8243;49.048;8.396;2024-01-15T06:37:29;21.77;;;12.57;;
16270;SDS011;8243;49.048;8.396;2024-01-15T06:39:55;24.30;;;12.27;;
16270;SDS011;8243;49.048;8.396;2024-01-15T06:42:21;25.30;;;13.27;;
16270;SDS011;8243;49.048;8.396;2024-01-15T06:44:47;22.20;;;12.13;;
16270;SDS011;8243;49.048;8.396;2024-01-15T06:47:12;23.67;;;13.40;;
16270;SDS011;8243;49.048;8.396;2024-01-15T06:49:39;23.53;;;12.63;;
16270;SDS011;8243;49.048;8.396;2024-01-15T06:52:05;23.17;;;13.13;;
16270;SDS011;8243;49.048;8.396;2024-01-15T06:54:31;20.70;;;12.00;;
16270;SDS011;8243;49.048;8.396;2024-01-15T06:56:56;20.67;;;11.60;;
16270;SDS011;8243;49.048;8.396;2024-01-15T06:59:22;24.57;;;12.07;;
16270;SDS011;8243;49.048;8.396;2024-01-15T07:01:48;20.93;;;11.70;;
16270;SDS011;8243;49.048;8.396;2024-01-15T07:04:13;29.07;;;12.60;;
16270;SDS011;8243;49.048;8.396;2024-01-15T07:06:39;21.03;;;12.33;;
16270;SDS011;8243;49.048;8.396;2024-01-15T07:09:04;24.07;;;11.97;;
16270;SDS011;8243;49.048;8.396;2024-01-15T07:11:31;20.00;;;12.10;;
16270;SDS011;8243;49.048;8.396;2024-01-15T07:13:56;23.27;;;12.50;;
16270;SDS011;8243;49.048;8.396;2024-01-15T07:16:22;20.53;;;11.73;;
16270;SDS011;8243;49.048;8.396;2024-01-15T07:18:47;18.57;;;11.13;;
16270;SDS011;8243;49.048;8.396;2024-01-15T07:21:13;23.03;;;12.53;;
16270;SDS011;8243;49.048;8.396;2024-01-15T07:23:38;23.20;;;12.40;;
16270;SDS011;8243;49.048;8.396;2024-01-15T07:26:04;20.53;;;11.90;;
16270;SDS011;8243;49.048;8.396;2024-01-15T07:28:30;21.23;;;11.80;;
16270;SDS011;8243;49.048;8.396;2024-01-15T07:30:56;20.73;;;12.33;;
16270;SDS011;8243;49.048;8.396;2024-01-15T07:33:22;21.70;;;12.37;;
16270;SDS011;8243;49.048;8.396;2024-01-15T07:35:47;23.47;;;12.93;;
16270;SDS011;8243;49.048;8.396;2024-01-15T07:38:13;19.93;;;12.27;;
16270;SDS011;8243;49.048;8.396;2024-01-15T07:40:39;21.83;;;12.00;;
16270;SDS011;8243;49.048;8.396;2024-01-15T07:43:04;21.20;;;11.70;;
16270;SDS011;8243;49.048;8.396;2024-01-15T07:45:30;19.60;;;10.70;;
16270;SDS011;8243;49.048;8.396;2024-01-15T07:47:55;19.27;;;11.00;;
16270;SDS011;8243;49.048;8.396;2024-01-15T07:50:21;20.83;;;12.50;;
16270;SDS011;8243;49.048;8.396;2024-01-15T07:52:47;17.60;;;10.90;;
16270;SDS011;8243;49.048;8.396;2024-01-15T07:55:13;19.10;;;11.30;;
16270;SDS011;8243;49.048;8.396;2024-01-15T07:57:39;19.73;;;11.50;;
16270;SDS011;8243;49.048;8.396;2024-01-15T08:00:04;18.77;;;10.80;;
16270;SDS011;8243;49.048;8.396;2024-01-15T08:02:30;18.37;;;10.43;;
16270;SDS011;8243;49.048;8.396;2024-01-15T08:04:57;17.57;;;10.83;;
16270;SDS011;8243;49.048;8.396;2024-01-15T08:07:23;22.03;;;11.50;;
16270;SDS011;8243;49.048;8.396;2024-01-15T08:09:50;20.20;;;10.40;;
16270;SDS011;8243;49.048;8.396;2024-01-15T08:12:16;18.13;;;10.57;;
16270;SDS011;8243;49.048;8.396;2024-01-15T08:14:42;23.07;;;11.93;;
16270;SDS011;8243;49.048;8.396;2024-01-15T08:17:07;22.47;;;12.47;;
16270;SDS011;8243;49.048;8.396;2024-01-15T08:19:33;22.03;;;11.97;;
16270;SDS011;8243;49.048;8.396;2024-01-15T08:21:59;19.37;;;11.30;;
16270;SDS011;8243;49.048;8.396;2024-01-15T08:24:24;22.83;;;11.70;;
16270;SDS011;8243;49.048;8.396;2024-01-15T08:26:50;23.27;;;11.90;;
16270;SDS011;8243;49.048;8.396;2024-01-15T08:29:15;20.57;;;11.57;;
16270;SDS011;8243;49.048;8.396;2024-01-15T08:31:41;21.03;;;11.83;;
16270;SDS011;8243;49.048;8.396;2024-01-15T08:34:08;20.87;;;11.37;;
16270;SDS011;8243;49.048;8.396;2024-01-15T08:36:33;20.47;;;11.43;;
16270;SDS011;8243;49.048;8.396;2024-01-15T08:39:01;22.60;;;12.30;;
16270;SDS011;8243;49.048;8.396;2024-01-15T08:41:26;20.43;;;11.23;;
16270;SDS011;8243;49.048;8.396;2024-01-15T08:43:52;25.90;;;13.57;;
16270;SDS011;8243;49.048;8.396;2024-01-15T08:46:18;22.20;;;12.53;;
16270;SDS011;8243;49.048;8.396;2024-01-15T08:48:43;19.97;;;11.63;;
16270;SDS011;8243;49.048;8.396;2024-01-15T08:51:09;24.30;;;12.80;;
16270;SDS011;8243;49.048;8.396;2024-01-15T08:53:34;23.77;;;13.23;;
16270;SDS011;8243;49.048;8.396;2024-01-15T08:56:00;25.07;;;13.10;;
16270;SDS011;8243;49.048;8.396;2024-01-15T08:58:26;23.43;;;12.90;;
16270;SDS011;8243;49.048;8.396;2024-01-15T09:00:52;22.43;;;12.70;;
16270;SDS011;8243;49.048;8.396;2024-01-15T09:03:17;23.10;;;13.07;;
16270;SDS011;8243;49.048;8.396;2024-01-15T09:05:43;20.83;;;12.57;;
16270;SDS011;8243;49.048;8.396;2024-01-15T09:08:08;22.27;;;12.60;;
16270;SDS011;8243;49.048;8.396;2024-01-15T09:10:34;23.47;;;13.60;;
16270;SDS011;8243;49.048;8.396;2024-01-15T09:13:00;22.97;;;13.23;;
16270;SDS011;8243;49.048;8.396;2024-01-15T09:15:25;23.27;;;12.60;;
16270;SDS011;8243;49.048;8.396;2024-01-15T09:17:51;24.83;;;14.60;;
16270;SDS011;8243;49.048;8.396;2024-01-15T09:20:16;24.60;;;14.07;;
16270;SDS011;8243;49.048;8.396;2024-01-15T09:22:43;24.27;;;13.67;;
16270;SDS011;8243;49.048;8.396;2024-01-15T09:25:09;23.27;;;13.67;;
16270;SDS011;8243;49.048;8.396;2024-01-15T09:27:35;23.50;;;13.70;;
16270;SDS011;8243;49.048;8.396;2024-01-15T09:30:02;21.73;;;13.37;;
16270;SDS011;8243;49.048;8.396;2024-01-15T09:32:28;24.23;;;13.57;;
16270;SDS011;8243;49.048;8.396;2024-01-15T09:34:53;22.40;;;13.47;;
16270;SDS011;8243;49.048;8.396;2024-01-15T09:37:19;23.57;;;13.00;;
16270;SDS011;8243;49.048;8.396;2024-01-15T09:39:44;21.43;;;12.83;;
16270;SDS011;8243;49.048;8.396;2024-01-15T09:42:10;24.60;;;13.57;;
16270;SDS011;8243;49.048;8.396;2024-01-15T09:44:36;24.80;;;14.23;;
16270;SDS011;8243;49.048;8.396;2024-01-15T09:47:03;23.20;;;13.33;;
16270;SDS011;8243;49.048;8.396;2024-01-15T09:49:30;21.77;;;12.77;;
16270;SDS011;8243;49.048;8.396;2024-01-15T09:51:55;20.60;;;12.30;;
16270;SDS011;8243;49.048;8.396;2024-01-15T09:54:23;19.83;;;12.63;;
16270;SDS011;8243;49.048;8.396;2024-01-15T09:56:48;21.80;;;12.47;;
16270;SDS011;8243;49.048;8.396;2024-01-15T09:59:15;22.30;;;12.77;;
16270;SDS011;8243;49.048;8.396;2024-01-15T10:01:41;20.63;;;12.77;;
16270;SDS011;8243;49.048;8.396;2024-01-15T10:04:09;22.07;;;13.00;;
16270;SDS011;8243;49.048;8.396;2024-01-15T10:06:38;22.93;;;13.83;;
16270;SDS011;8243;49.048;8.396;2024-01-15T10:09:06;22.50;;;13.23;;
16270;SDS011;8243;49.048;8.396;2024-01-15T10:11:33;22.53;;;13.50;;
16270;SDS011;8243;49.048;8.396;2024-01-15T10:13:58;21.17;;;13.67;;
16270;SDS011;8243;49.048;8.396;2024-01-15T10:16:24;23.33;;;14.17;;
16270;SDS011;8243;49.048;8.396;2024-01-15T10:18:50;27.10;;;15.90;;
16270;SDS011;8243;49.048;8.396;2024-01-15T10:21:16;24.97;;;15.33;;
16270;SDS011;8243;49.048;8.396;2024-01-15T10:23:42;23.33;;;14.63;;
16270;SDS011;8243;49.048;8.396;2024-01-15T10:26:08;23.70;;;14.30;;
16270;SDS011;8243;49.048;8.396;2024-01-15T10:28:33;22.27;;;14.13;;
16270;SDS011;8243;49.048;8.396;2024-01-15T10:30:59;24.97;;;15.27;;
16270;SDS011;8243;49.048;8.396;2024-01-15T10:33:25;26.47;;;14.83;;
16270;SDS011;8243;49.048;8.396;2024-01-15T10:35:54;25.20;;;15.07;;
16270;SDS011;8243;49.048;8.396;2024-01-15T10:38:21;25.90;;;14.53;;
16270;SDS011;8243;49.048;8.396;2024-01-15T10:40:51;28.93;;;14.90;;
16270;SDS011;8243;49.048;8.396;2024-01-15T10:43:18;25.07;;;14.50;;
16270;SDS011;8243;49.048;8.396;2024-01-15T10:45:47;26.67;;;14.30;;
16270;SDS011;8243;49.048;8.396;2024-01-15T10:48:13;23.20;;;13.47;;
16270;SDS011;8243;49.048;8.396;2024-01-15T10:50:40;26.23;;;14.47;;
16270;SDS011;8243;49.048;8.396;2024-01-15T10:53:07;26.37;;;14.70;;
16270;SDS011;8243;49.048;8.396;2024-01-15T10:55:34;25.40;;;14.47;;
16270;SDS011;8243;49.048;8.396;2024-01-15T10:58:02;26.10;;;15.17;;
16270;SDS011;8243;49.048;8.396;2024-01-15T11:00:28;24.47;;;15.23;;
16270;SDS011;8243;49.048;8.396;2024-01-15T11:02:54;26.03;;;14.50;;
16270;SDS011;8243;49.048;8.396;2024-01-15T11:05:21;24.13;;;14.03;;
16270;SDS011;8243;49.048;8.396;2024-01-15T11:07:48;26.90;;;15.00;;
16270;SDS011;8243;49.048;8.396;2024-01-15T11:13:08;21.37;;;13.33;;
16270;SDS011;8243;49.048;8.396;2024-01-15T11:15:59;23.87;;;13.00;;
16270;SDS011;8243;49.048;8.396;2024-01-15T11:18:27;21.27;;;12.20;;
16270;SDS011;8243;49.048;8.396;2024-01-15T11:21:39;21.80;;;12.17;;
16270;SDS011;8243;49.048;8.396;2024-01-15T11:23:46;20.70;;;12.50;;
16270;SDS011;8243;49.048;8.396;2024-01-15T11:27:05;21.20;;;12.37;;
16270;SDS011;8243;49.048;8.396;2024-01-15T11:34:21;19.77;;;12.00;;
16270;SDS011;8243;49.048;8.396;2024-01-15T11:37:23;24.43;;;12.57;;
16270;SDS011;8243;49.048;8.396;2024-01-15T11:39:53;20.33;;;11.97;;
16270;SDS011;8243;49.048;8.396;2024-01-15T11:42:20;25.83;;;12.97;;
16270;SDS011;8243;49.048;8.396;2024-01-15T11:44:46;23.87;;;12.97;;
16270;SDS011;8243;49.048;8.396;2024-01-15T11:47:12;24.70;;;12.93;;
16270;SDS011;8243;49.048;8.396;2024-01-15T11:52:28;22.37;;;12.97;;
16270;SDS011;8243;49.048;8.396;2024-01-15T11:55:01;25.07;;;14.10;;
16270;SDS011;8243;49.048;8.396;2024-01-15T11:57:50;21.03;;;13.07;;
16270;SDS011;8243;49.048;8.396;2024-01-15T12:00:18;39.20;;;22.07;;
16270;SDS011;8243;49.048;8.396;2024-01-15T12:02:45;21.07;;;13.83;;
16270;SDS011;8243;49.048;8.396;2024-01-15T12:05:12;20.97;;;12.83;;
16270;SDS011;8243;49.048;8.396;2024-01-15T12:07:39;22.60;;;13.20;;
16270;SDS011;8243;49.048;8.396;2024-01-15T12:10:12;23.80;;;13.73;;
16270;SDS011;8243;49.048;8.396;2024-01-15T12:15:30;21.27;;;12.50;;
16270;SDS011;8243;49.048;8.396;2024-01-15T12:17:57;22.77;;;13.23;;
16270;SDS011;8243;49.048;8.396;2024-01-15T12:20:26;22.17;;;13.53;;
16270;SDS011;8243;49.048;8.396;2024-01-15T12:22:53;20.17;;;11.77;;
16270;SDS011;8243;49.048;8.396;2024-01-15T12:25:20;21.73;;;12.83;;
16270;SDS011;8243;49.048;8.396;2024-01-15T12:27:46;22.70;;;14.13;;
16270;SDS011;8243;49.048;8.396;2024-01-15T12:30:12;21.27;;;12.77;;
16270;SDS011;8243;49.048;8.396;2024-01-15T12:32:39;18.10;;;12.10;;
16270;SDS011;8243;49.048;8.396;2024-01-15T12:35:06;19.40;;;11.87;;
16270;SDS011;8243;49.048;8.396;2024-01-15T12:37:34;19.77;;;11.13;;
16270;SDS011;8243;49.048;8.396;2024-01-15T12:40:01;21.17;;;12.83;;
16270;SDS011;8243;49.048;8.396;2024-01-15T12:42:28;20.07;;;12.13;;
16270;SDS011;8243;49.048;8.396;2024-01-15T12:44:55;19.67;;;12.23;;
16270;SDS011;8243;49.048;8.396;2024-01-15T12:47:24;22.37;;;12.50;;
16270;SDS011;8243;49.048;8.396;2024-01-15T12:49:51;19.97;;;11.87;;
16270;SDS011;8243;49.048;8.396;2024-01-15T12:52:20;19.43;;;11.30;;
16270;SDS011;8243;49.048;8.396;2024-01-15T12:54:47;16.17;;;10.93;;
16270;SDS011;8243;49.048;8.396;2024-01-15T12:57:16;16.70;;;10.77;;
16270;SDS011;8243;49.048;8.396;2024-01-15T12:59:43;15.47;;;10.60;;
16270;SDS011;8243;49.048;8.396;2024-01-15T13:02:10;18.67;;;11.97;;
16270;SDS011;8243;49.048;8.396;2024-01-15T13:04:36;16.60;;;10.87;;
16270;SDS011;8243;49.048;8.396;2024-01-15T13:07:02;15.77;;;10.30;;
16270;SDS011;8243;49.048;8.396;2024-01-15T13:09:27;18.77;;;10.33;;
16270;SDS011;8243;49.048;8.396;2024-01-15T13:11:55;15.83;;;10.20;;
16270;SDS011;8243;49.048;8.396;2024-01-15T13:14:21;15.03;;;10.17;;
16270;SDS011;8243;49.048;8.396;2024-01-15T13:16:46;13.20;;;9.50;;
16270;SDS011;8243;49.048;8.396;2024-01-15T13:19:12;14.90;;;9.97;;
16270;SDS011;8243;49.048;8.396;2024-01-15T13:21:41;14.57;;;9.67;;
16270;SDS011;8243;49.048;8.396;2024-01-15T13:24:07;12.53;;;8.70;;
16270;SDS011;8243;49.048;8.396;2024-01-15T13:26:33;14.07;;;9.47;;
16270;SDS011;8243;49.048;8.396;2024-01-15T13:29:02;12.57;;;8.57;;
16270;SDS011;8243;49.048;8.396;2024-01-15T13:31:29;12.33;;;8.00;;
16270;SDS011;8243;49.048;8.396;2024-01-15T13:33:58;11.33;;;8.23;;
16270;SDS011;8243;49.048;8.396;2024-01-15T13:36:24;11.93;;;7.80;;
16270;SDS011;8243;49.048;8.396;2024-01-15T13:38:50;11.50;;;7.87;;
16270;SDS011;8243;49.048;8.396;2024-01-15T13:41:18;11.33;;;8.10;;
16270;SDS011;8243;49.048;8.396;2024-01-15T13:43:53;12.93;;;7.90;;
16270;SDS011;8243;49.048;8.396;2024-01-15T13:46:23;10.00;;;7.60;;
16270;SDS011;8243;49.048;8.396;2024-01-15T13:48:51;10.43;;;7.70;;
16270;SDS011;8243;49.048;8.396;2024-01-15T13:51:17;9.63;;;7.50;;
16270;SDS011;8243;49.048;8.396;2024-01-15T13:53:42;10.23;;;7.43;;
16270;SDS011;8243;49.048;8.396;2024-01-15T13:56:08;12.07;;;8.43;;
16270;SDS011;8243;49.048;8.396;2024-01-15T13:58:35;10.87;;;7.97;;
16270;SDS011;8243;49.048;8.396;2024-01-15T14:01:02;12.23;;;8.47;;
16270;SDS011;8243;49.048;8.396;2024-01-15T14:03:31;11.30;;;9.03;;
16270;SDS011;8243;49.048;8.396;2024-01-15T14:05:57;14.17;;;8.93;;
16270;SDS011;8243;49.048;8.396;2024-01-15T14:08:23;10.13;;;7.63;;
16270;SDS011;8243;49.048;8.396;2024-01-15T14:10:48;9.10;;;7.43;;
16270;SDS011;8243;49.048;8.396;2024-01-15T14:13:14;9.50;;;7.30;;
16270;SDS011;8243;49.048;8.396;2024-01-15T14:15:40;9.20;;;7.40;;
16270;SDS011;8243;49.048;8.396;2024-01-15T14:18:05;11.60;;;8.33;;
16270;SDS011;8243;49.048;8.396;2024-01-15T14:20:31;10.30;;;8.20;;
16270;SDS011;8243;49.048;8.396;2024-01-15T14:22:57;11.57;;;8.70;;
16270;SDS011;8243;49.048;8.396;2024-01-15T14:25:23;10.60;;;7.63;;
16270;SDS011;8243;49.048;8.396;2024-01-15T14:27:51;9.50;;;7.20;;
16270;SDS011;8243;49.048;8.396;2024-01-15T14:30:17;11.43;;;7.77;;
16270;SDS011;8243;49.048;8.396;2024-01-15T14:32:43;11.60;;;8.40;;
16270;SDS011;8243;49.048;8.396;2024-01-15T14:35:08;9.70;;;7.93;;
16270;SDS011;8243;49.048;8.396;2024-01-15T14:37:38;15.30;;;11.07;;
16270;SDS011;8243;49.048;8.396;2024-01-15T14:40:06;13.03;;;9.93;;
16270;SDS011;8243;49.048;8.396;2024-01-15T14:42:35;16.63;;;13.00;;
16270;SDS011;8243;49.048;8.396;2024-01-15T14:45:02;12.83;;;7.93;;
16270;SDS011;8243;49.048;8.396;2024-01-15T14:47:28;10.10;;;7.37;;
16270;SDS011;8243;49.048;8.396;2024-01-15T14:49:55;10.10;;;8.23;;
16270;SDS011;8243;49.048;8.396;2024-01-15T14:52:22;10.00;;;7.50;;
16270;SDS011;8243;49.048;8.396;2024-01-15T14:54:48;8.90;;;7.00;;
16270;SDS011;8243;49.048;8.396;2024-01-15T14:57:14;9.83;;;7.73;;
16270;SDS011;8243;49.048;8.396;2024-01-15T14:59:39;11.00;;;7.77;;
16270;SDS011;8243;49.048;8.396;2024-01-15T15:02:05;10.73;;;7.73;;
16270;SDS011;8243;49.048;8.396;2024-01-15T15:04:31;10.37;;;7.93;;
16270;SDS011;8243;49.048;8.396;2024-01-15T15:06:57;9.67;;;7.90;;
16270;SDS011;8243;49.048;8.396;2024-01-15T15:09:23;10.97;;;7.83;;
16270;SDS011;8243;49.048;8.396;2024-01-15T15:11:48;10.57;;;7.40;;
16270;SDS011;8243;49.048;8.396;2024-01-15T15:14:14;11.77;;;7.37;;
16270;SDS011;8243;49.048;8.396;2024-01-15T15:16:39;8.47;;;6.80;;
16270;SDS011;8243;49.048;8.396;2024-01-15T15:19:05;10.53;;;7.70;;
16270;SDS011;8243;49.048;8.396;2024-01-15T15:21:30;10.73;;;8.00;;
16270;SDS011;8243;49.048;8.396;2024-01-15T15:23:56;10.17;;;8.13;;
16270;SDS011;8243;49.048;8.396;2024-01-15T15:26:21;10.50;;;8.20;;